createdAt,value
2022-10-28T00:01:25.055Z,99417.03
2022-10-28T00:03:54.980Z,99419.75
2022-10-28T00:06:25.617Z,99416.22
2022-10-28T00:08:54.414Z,99418.72
2022-10-28T00:11:24.928Z,99412.50
2022-10-28T00:13:54.890Z,99412.50
2022-10-28T00:16:26.521Z,99419.75
2022-10-28T00:18:55.179Z,99406.28
2022-10-28T00:21:25.538Z,99408.28
2022-10-28T00:23:54.355Z,99408.97
2022-10-28T00:26:24.756Z,99403.59
2022-10-28T00:28:54.429Z,99397.19
2022-10-28T00:31:26.319Z,99391.13
2022-10-28T00:33:55.201Z,99394.69
2022-10-28T00:36:24.981Z,99399.19
2022-10-28T00:38:54.445Z,99396.66
2022-10-28T00:41:25.035Z,99391.13
2022-10-28T00:43:56.403Z,99387.59
2022-10-28T00:46:31.154Z,99388.44
2022-10-28T00:49:03.269Z,99388.44
2022-10-28T00:51:33.520Z,99384.22
2022-10-28T00:54:02.036Z,99379.69
2022-10-28T00:56:33.824Z,99377.84
2022-10-28T00:59:04.089Z,99372.59
2022-10-28T01:01:34.131Z,99368.09
2022-10-28T01:04:02.765Z,99369.91
2022-10-28T01:06:31.326Z,99369.06
2022-10-28T01:09:00.306Z,99366.38
2022-10-28T01:11:53.672Z,99367.06
2022-10-28T01:14:53.439Z,99366.22
2022-10-28T01:17:33.678Z,99365.22
2022-10-28T01:20:55.832Z,99365.50
2022-10-28T01:23:30.521Z,99368.34
2022-10-28T01:26:31.345Z,99362.97
2022-10-28T01:29:26.792Z,99362.13
2022-10-28T01:31:58.413Z,99367.34
2022-10-28T01:34:31.749Z,99368.34
2022-10-28T01:37:03.254Z,99355.06
2022-10-28T01:39:34.766Z,99369.34
2022-10-28T01:42:12.003Z,99356.75
2022-10-28T01:44:47.170Z,99347.69
2022-10-28T01:47:18.538Z,99347.81
2022-10-28T01:49:49.689Z,99349.50
2022-10-28T01:52:22.468Z,99352.19
2022-10-28T01:54:52.998Z,99341.75
2022-10-28T01:57:21.643Z,99343.47
2022-10-28T01:59:50.268Z,99342.59
2022-10-28T02:02:20.583Z,99345.13
2022-10-28T02:04:49.133Z,99343.47
2022-10-28T02:07:17.760Z,99342.75
2022-10-28T02:09:57.993Z,99341.75
2022-10-28T02:12:28.236Z,99333.84
2022-10-28T02:15:18.896Z,99336.38
2022-10-28T02:18:25.258Z,99342.06
2022-10-28T02:20:56.740Z,99332.97
2022-10-28T02:23:33.263Z,99337.53
2022-10-28T02:26:05.345Z,99340.38
2022-10-28T02:28:39.505Z,99338.38
2022-10-28T02:31:11.791Z,99341.22
2022-10-28T02:33:41.768Z,99332.97
2022-10-28T02:36:13.034Z,99322.41
2022-10-28T02:38:43.903Z,99317.16
2022-10-28T02:41:17.786Z,99304.25
2022-10-28T02:43:46.445Z,99309.78
2022-10-28T02:46:15.159Z,99303.56
2022-10-28T02:48:46.619Z,99310.63
2022-10-28T02:51:18.033Z,99310.63
2022-10-28T02:53:57.410Z,99304.56
2022-10-28T02:56:26.181Z,99303.69
2022-10-28T02:58:54.706Z,99291.13
2022-10-28T03:01:23.512Z,99290.25
2022-10-28T03:03:53.489Z,99300.16
2022-10-28T03:06:22.147Z,99291.97
2022-10-28T03:08:50.878Z,99299.34
2022-10-28T03:11:20.341Z,99293.94
2022-10-28T03:13:48.887Z,99296.78
2022-10-28T03:16:17.617Z,99303.88
2022-10-28T03:18:46.243Z,99305.56
2022-10-28T03:21:16.300Z,99299.47
2022-10-28T03:23:44.834Z,99293.94
2022-10-28T03:26:13.377Z,99288.56
2022-10-28T03:28:41.924Z,99282.34
2022-10-28T03:31:10.541Z,99279.09
2022-10-28T03:33:39.275Z,99281.66
2022-10-28T03:36:08.699Z,99287.03
2022-10-28T03:38:38.762Z,99274.59
2022-10-28T03:41:07.550Z,99287.88
2022-10-28T03:43:36.970Z,99287.19
2022-10-28T03:46:05.655Z,99277.28
2022-10-28T03:48:34.478Z,99280.13
2022-10-28T03:51:03.251Z,99266.34
2022-10-28T03:53:31.922Z,99284.34
2022-10-28T03:56:02.596Z,99274.75
2022-10-28T03:58:31.367Z,99279.09
2022-10-28T04:00:59.964Z,99276.41
2022-10-28T04:03:28.689Z,99283.50
2022-10-28T04:05:57.320Z,99276.41
2022-10-28T04:08:26.021Z,99281.81
2022-10-28T04:10:54.749Z,99281.81
2022-10-28T04:13:24.669Z,99286.34
2022-10-28T04:15:53.425Z,99286.19
2022-10-28T04:18:21.935Z,99287.19
2022-10-28T04:20:50.706Z,99274.44
2022-10-28T04:23:19.535Z,99275.59
2022-10-28T04:25:48.276Z,99274.75
2022-10-28T04:28:16.902Z,99269.38
2022-10-28T04:30:48.516Z,99260.28
2022-10-28T04:33:17.273Z,99265.66
2022-10-28T04:35:46.412Z,99264.13
2022-10-28T04:38:16.478Z,99274.75
2022-10-28T04:40:45.157Z,99274.06
2022-10-28T04:43:13.677Z,99270.38
2022-10-28T04:45:42.301Z,99274.75
2022-10-28T04:48:12.289Z,99273.91
2022-10-28T04:50:41.258Z,99272.06
2022-10-28T04:53:09.930Z,99274.44
2022-10-28T04:55:38.594Z,99279.47
2022-10-28T04:58:11.160Z,99263.34
2022-10-28T05:00:39.807Z,99260.66
2022-10-28T05:03:08.884Z,99256.97
2022-10-28T05:05:38.889Z,99250.75
2022-10-28T05:08:07.784Z,99241.81
2022-10-28T05:10:36.316Z,99234.75
2022-10-28T05:13:05.001Z,99227.22
2022-10-28T05:15:33.532Z,99224.50
2022-10-28T05:18:03.036Z,99236.97
2022-10-28T05:20:31.935Z,99236.66
2022-10-28T05:23:02.059Z,99231.28
2022-10-28T05:25:30.931Z,99239.50
2022-10-28T05:28:00.695Z,99235.50
2022-10-28T05:30:29.310Z,99238.34
2022-10-28T05:33:02.527Z,99248.66
2022-10-28T05:35:31.190Z,99256.56
2022-10-28T05:38:01.134Z,99260.97
2022-10-28T05:40:29.674Z,99253.56
2022-10-28T05:42:58.263Z,99258.97
2022-10-28T05:45:26.969Z,99256.09
2022-10-28T05:47:55.871Z,99254.75
2022-10-28T05:50:24.785Z,99253.03
2022-10-28T05:52:55.368Z,99247.09
2022-10-28T05:55:28.296Z,99247.44
2022-10-28T05:57:57.481Z,99251.34
2022-10-28T06:00:26.948Z,99249.69
2022-10-28T06:03:03.678Z,99257.75
2022-10-28T06:05:32.217Z,99259.44
2022-10-28T06:08:00.901Z,99247.31
2022-10-28T06:10:30.836Z,99242.63
2022-10-28T06:12:58.227Z,99242.50
2022-10-28T06:15:27.779Z,99247.31
2022-10-28T06:17:56.399Z,99236.75
2022-10-28T06:20:25.035Z,99244.13
2022-10-28T06:22:55.494Z,99247.31
2022-10-28T06:25:26.283Z,99249.88
2022-10-28T06:27:57.273Z,99257.94
2022-10-28T06:30:26.866Z,99276.78
2022-10-28T06:32:56.823Z,99269.53
2022-10-28T06:35:25.365Z,99263.47
2022-10-28T06:37:55.245Z,99272.56
2022-10-28T06:40:24.456Z,99279.09
2022-10-28T06:42:59.052Z,99277.09
2022-10-28T06:45:27.688Z,99278.09
2022-10-28T06:47:58.450Z,99274.41
2022-10-28T06:50:27.135Z,99284.16
2022-10-28T06:52:57.258Z,99286.03
2022-10-28T06:55:26.528Z,99276.94
2022-10-28T06:57:55.756Z,99284.16
2022-10-28T07:00:26.934Z,99287.69
2022-10-28T07:02:56.006Z,99291.25
2022-10-28T07:05:25.488Z,99285.88
2022-10-28T07:07:54.440Z,99291.25
2022-10-28T07:10:23.345Z,99289.53
2022-10-28T07:12:54.196Z,99291.25
2022-10-28T07:15:23.065Z,99289.41
2022-10-28T07:17:55.360Z,99295.78
2022-10-28T07:20:24.429Z,99300.00
2022-10-28T07:22:58.047Z,99298.31
2022-10-28T07:25:27.263Z,99288.38
2022-10-28T07:27:56.327Z,99297.16
2022-10-28T07:30:25.427Z,99292.78
2022-10-28T07:32:55.896Z,99292.78
2022-10-28T07:35:25.037Z,99281.53
2022-10-28T07:37:53.720Z,99283.56
2022-10-28T07:40:22.743Z,99286.25
2022-10-28T07:42:51.731Z,99273.72
2022-10-28T07:45:20.705Z,99285.41
2022-10-28T07:47:49.260Z,99281.19
2022-10-28T07:50:19.281Z,99279.47
2022-10-28T07:52:47.712Z,99285.56
2022-10-28T07:55:16.321Z,99289.03
2022-10-28T07:57:44.889Z,99282.03
2022-10-28T08:00:14.285Z,99284.06
2022-10-28T08:02:43.130Z,99286.91
2022-10-28T08:05:11.797Z,99277.84
2022-10-28T08:07:41.702Z,99278.50
2022-10-28T08:10:10.770Z,99278.50
2022-10-28T08:12:39.423Z,99275.81
2022-10-28T08:15:10.743Z,99278.69
2022-10-28T08:17:39.295Z,99266.06
2022-10-28T08:20:09.102Z,99262.22
2022-10-28T08:22:37.534Z,99264.91
2022-10-28T08:25:08.238Z,99263.06
2022-10-28T08:27:36.761Z,99258.50
2022-10-28T08:30:06.720Z,99269.28
2022-10-28T08:32:35.337Z,99271.31
2022-10-28T08:35:04.032Z,99258.50
2022-10-28T08:37:32.827Z,99259.38
2022-10-28T08:40:01.402Z,99255.53
2022-10-28T08:42:42.638Z,99256.34
2022-10-28T08:45:19.223Z,99269.13
2022-10-28T08:47:56.850Z,99268.44
2022-10-28T08:50:26.819Z,99273.66
2022-10-28T08:52:58.402Z,99274.38
2022-10-28T08:55:30.133Z,99269.81
2022-10-28T08:58:02.069Z,99277.19
2022-10-28T09:00:31.848Z,99265.75
2022-10-28T09:03:13.798Z,99261.38
2022-10-28T09:05:43.572Z,99260.22
2022-10-28T09:08:18.775Z,99259.38
2022-10-28T09:11:05.352Z,99251.13
2022-10-28T09:13:45.244Z,99242.22
2022-10-28T09:16:19.316Z,99243.03
2022-10-28T09:18:53.676Z,99247.59
2022-10-28T09:21:26.145Z,99238.34
2022-10-28T09:23:57.681Z,99257.19
2022-10-28T09:26:36.488Z,99252.81
2022-10-28T09:29:26.709Z,99253.81
2022-10-28T09:31:58.304Z,99247.44
2022-10-28T09:34:32.420Z,99247.25
2022-10-28T09:37:04.656Z,99247.63
2022-10-28T09:39:43.277Z,99256.41
2022-10-28T09:42:15.276Z,99261.44
2022-10-28T09:44:48.491Z,99265.34
2022-10-28T09:47:19.041Z,99263.34
2022-10-28T09:49:47.812Z,99254.44
2022-10-28T09:52:19.977Z,99257.13
2022-10-28T09:54:51.018Z,99262.66
2022-10-28T09:57:20.125Z,99267.03
2022-10-28T09:59:50.253Z,99263.34
2022-10-28T10:02:30.819Z,99263.34
2022-10-28T10:05:00.540Z,99265.84
2022-10-28T10:07:33.681Z,99262.19
2022-10-28T10:10:06.249Z,99264.38
2022-10-28T10:12:35.026Z,99255.63
2022-10-28T10:15:06.803Z,99243.16
2022-10-28T10:17:40.476Z,99249.56
2022-10-28T10:20:11.633Z,99256.63
2022-10-28T10:22:41.316Z,99250.25
2022-10-28T10:25:30.118Z,99256.47
2022-10-28T10:28:00.856Z,99257.31
2022-10-28T10:30:32.986Z,99248.22
2022-10-28T10:33:02.443Z,99251.59
2022-10-28T10:35:31.979Z,99242.34
2022-10-28T10:38:01.925Z,99247.41
2022-10-28T10:40:32.242Z,99246.09
2022-10-28T10:43:20.544Z,99241.84
2022-10-28T10:46:03.107Z,99245.53
2022-10-28T10:48:34.006Z,99254.63
2022-10-28T10:51:07.033Z,99239.31
2022-10-28T10:53:36.357Z,99244.19
2022-10-28T10:56:06.182Z,99247.72
2022-10-28T10:58:35.711Z,99234.44
2022-10-28T11:01:07.354Z,99236.94
2022-10-28T11:03:38.446Z,99232.25
2022-10-28T11:06:24.812Z,99243.03
2022-10-28T11:08:57.296Z,99231.41
2022-10-28T11:11:35.346Z,99237.13
2022-10-28T11:14:07.151Z,99238.13
2022-10-28T11:16:50.147Z,99234.75
2022-10-28T11:19:22.693Z,99225.81
2022-10-28T11:22:11.388Z,99234.75
2022-10-28T11:25:00.627Z,99233.06
2022-10-28T11:27:35.496Z,99224.31
2022-10-28T11:30:04.527Z,99230.69
2022-10-28T11:32:54.602Z,99231.53
2022-10-28T11:35:47.580Z,99219.75
2022-10-28T11:38:28.348Z,99219.75
2022-10-28T11:41:04.219Z,99228.69
2022-10-28T11:43:35.181Z,99225.13
2022-10-28T11:46:06.803Z,99221.59
2022-10-28T11:48:45.636Z,99227.00
2022-10-28T11:51:21.061Z,99217.06
2022-10-28T11:54:17.118Z,99212.69
2022-10-28T11:56:47.518Z,99218.06
2022-10-28T11:59:29.179Z,99214.69
2022-10-28T12:02:01.772Z,99214.53
2022-10-28T12:04:43.453Z,99208.31
2022-10-28T12:07:31.211Z,99200.06
2022-10-28T12:10:19.121Z,99203.78
2022-10-28T12:12:51.700Z,99205.63
2022-10-28T12:15:23.136Z,99210.84
2022-10-28T12:17:57.470Z,99193.84
2022-10-28T12:20:31.082Z,99192.00
2022-10-28T12:23:00.495Z,99192.16
2022-10-28T12:25:31.139Z,99189.47
2022-10-28T12:28:01.478Z,99193.00
2022-10-28T12:30:31.837Z,99194.69
2022-10-28T12:33:02.812Z,99196.72
2022-10-28T12:35:35.903Z,99186.59
2022-10-28T12:38:07.787Z,99183.25
2022-10-28T12:40:39.178Z,99181.22
2022-10-28T12:43:10.742Z,99173.97
2022-10-28T12:45:39.674Z,99177.53
2022-10-28T12:48:14.741Z,99181.06
2022-10-28T12:50:47.665Z,99184.44
2022-10-28T12:53:35.992Z,99184.59
2022-10-28T12:56:07.558Z,99180.03
2022-10-28T12:58:37.807Z,99184.25
2022-10-28T13:01:09.924Z,99181.91
2022-10-28T13:03:38.948Z,99183.56
2022-10-28T13:06:22.944Z,99173.00
2022-10-28T13:09:06.944Z,99175.69
2022-10-28T13:11:59.891Z,99167.75
2022-10-28T13:14:39.856Z,99164.06
2022-10-28T13:17:22.833Z,99169.59
2022-10-28T13:19:57.942Z,99167.59
2022-10-28T13:22:47.469Z,99168.28
2022-10-28T13:25:38.893Z,99173.50
2022-10-28T13:28:12.485Z,99160.72
2022-10-28T13:30:41.677Z,99162.03
2022-10-28T13:33:10.991Z,99166.91
2022-10-28T13:35:39.874Z,99157.81
2022-10-28T13:38:12.738Z,99156.97
2022-10-28T13:41:10.614Z,99159.00
2022-10-28T13:44:16.051Z,99153.44
2022-10-28T13:47:25.265Z,99145.38
2022-10-28T13:50:37.427Z,99148.25
2022-10-28T13:53:43.612Z,99160.00
2022-10-28T13:56:25.127Z,99159.84
2022-10-28T13:58:55.152Z,99161.53
2022-10-28T14:02:33.743Z,99165.06
2022-10-28T14:05:05.927Z,99166.91
2022-10-28T14:07:35.253Z,99159.66
2022-10-28T14:10:21.752Z,99163.19
2022-10-28T14:12:53.361Z,99155.31
2022-10-28T14:15:27.339Z,99149.91
2022-10-28T14:18:09.762Z,99145.38
2022-10-28T14:20:55.001Z,99146.53
2022-10-28T14:23:52.516Z,99146.38
2022-10-28T14:26:21.352Z,99147.22
2022-10-28T14:28:54.629Z,99146.22
2022-10-28T14:31:42.175Z,99143.69
2022-10-28T14:34:40.709Z,99144.53
2022-10-28T14:37:30.099Z,99145.38
2022-10-28T14:40:16.367Z,99148.25
2022-10-28T14:42:55.854Z,99138.31
2022-10-28T14:45:32.169Z,99136.47
2022-10-28T14:48:30.046Z,99131.06
2022-10-28T14:50:58.933Z,99132.09
2022-10-28T14:53:29.351Z,99130.06
2022-10-28T14:56:01.318Z,99133.91
2022-10-28T14:58:31.920Z,99131.91
2022-10-28T15:01:09.253Z,99126.69
2022-10-28T15:03:38.239Z,99130.22
2022-10-28T15:06:31.846Z,99129.53
2022-10-28T15:09:05.961Z,99133.91
2022-10-28T15:11:34.971Z,99129.53
2022-10-28T15:14:24.890Z,99128.38
2022-10-28T15:16:55.190Z,99131.06
2022-10-28T15:19:25.626Z,99132.94
2022-10-28T15:22:08.577Z,99136.47
2022-10-28T15:24:43.041Z,99133.75
2022-10-28T15:27:15.232Z,99127.34
2022-10-28T15:29:44.332Z,99125.69
2022-10-28T15:32:17.235Z,99124.84
2022-10-28T15:34:46.064Z,99126.53
2022-10-28T15:37:18.884Z,99124.84
2022-10-28T15:39:49.351Z,99127.69
2022-10-28T15:42:37.971Z,99137.47
2022-10-28T15:45:08.253Z,99134.09
2022-10-28T15:47:38.741Z,99126.84
2022-10-28T15:50:26.961Z,99134.09
2022-10-28T15:52:57.469Z,99134.94
2022-10-28T15:55:54.487Z,99135.28
2022-10-28T15:58:35.844Z,99138.78
2022-10-28T16:01:09.834Z,99129.69
2022-10-28T16:03:48.603Z,99133.06
2022-10-28T16:06:33.779Z,99125.84
2022-10-28T16:09:18.364Z,99128.72
2022-10-28T16:11:48.718Z,99138.31
2022-10-28T16:14:36.513Z,99133.75
2022-10-28T16:17:15.544Z,99124.84
2022-10-28T16:19:50.363Z,99123.16
2022-10-28T16:22:19.478Z,99131.22
2022-10-28T16:24:48.208Z,99127.69
2022-10-28T16:27:21.300Z,99129.41
2022-10-28T16:29:50.197Z,99127.34
2022-10-28T16:32:21.000Z,99123.00
2022-10-28T16:34:50.911Z,99119.28
2022-10-28T16:37:24.384Z,99121.31
2022-10-28T16:39:53.196Z,99117.94
2022-10-28T16:42:22.259Z,99130.38
2022-10-28T16:44:51.220Z,99123.00
2022-10-28T16:47:20.849Z,99124.66
2022-10-28T16:49:54.484Z,99123.00
2022-10-28T16:52:27.719Z,99114.91
2022-10-28T16:54:56.826Z,99127.34
2022-10-28T16:57:27.448Z,99120.31
2022-10-28T17:02:29.984Z,99122.31
2022-10-28T17:05:02.639Z,99133.63
2022-10-28T17:07:32.357Z,99132.75
2022-10-28T17:10:01.885Z,99135.63
2022-10-28T17:12:31.508Z,99135.63
2022-10-28T17:15:01.131Z,99135.63
2022-10-28T17:17:30.451Z,99137.63
2022-10-28T17:20:01.527Z,99133.09
2022-10-28T17:22:31.073Z,99136.97
2022-10-28T17:25:00.422Z,99135.09
2022-10-28T17:27:29.345Z,99130.06
2022-10-28T17:29:58.527Z,99135.78
2022-10-28T17:32:27.540Z,99138.47
2022-10-28T17:34:56.321Z,99131.06
2022-10-28T17:37:26.621Z,99127.34
2022-10-28T17:39:57.259Z,99138.13
2022-10-28T17:42:26.306Z,99133.56
2022-10-28T17:44:55.088Z,99130.88
2022-10-28T17:47:23.985Z,99130.06
2022-10-28T17:49:52.880Z,99127.03
2022-10-28T17:52:21.716Z,99125.00
2022-10-28T17:54:51.913Z,99123.69
2022-10-28T17:57:20.828Z,99133.28
2022-10-28T17:59:49.673Z,99119.50
2022-10-28T18:02:18.625Z,99124.44
2022-10-28T18:04:47.572Z,99122.69
2022-10-28T18:07:16.426Z,99114.59
2022-10-28T18:09:45.347Z,99117.47
2022-10-28T18:12:16.726Z,99105.81
2022-10-28T18:14:45.669Z,99104.16
2022-10-28T18:17:17.139Z,99107.88
2022-10-28T18:19:46.025Z,99103.47
2022-10-28T18:22:15.072Z,99101.78
2022-10-28T18:24:43.960Z,99104.50
2022-10-28T18:27:12.759Z,99101.94
2022-10-28T18:29:43.009Z,99099.44
2022-10-28T18:32:13.549Z,99090.50
2022-10-28T18:34:42.498Z,99094.91
2022-10-28T18:37:11.848Z,99093.03
2022-10-28T18:39:40.659Z,99088.50
2022-10-28T18:42:12.306Z,99093.72
2022-10-28T18:44:42.802Z,99092.69
2022-10-28T18:47:11.531Z,99090.34
2022-10-28T18:49:40.337Z,99092.34
2022-10-28T18:52:09.138Z,99100.28
2022-10-28T18:54:37.978Z,99108.69
2022-10-28T18:57:06.491Z,99107.84
2022-10-28T18:59:43.295Z,99095.22
2022-10-28T19:02:22.655Z,99096.06
2022-10-28T19:04:51.533Z,99090.69
2022-10-28T19:07:20.477Z,99088.81
2022-10-28T19:09:49.252Z,99093.19
2022-10-28T19:12:17.743Z,99086.97
2022-10-28T19:14:46.497Z,99094.41
2022-10-28T19:17:15.160Z,99097.75
2022-10-28T19:19:45.728Z,99092.34
2022-10-28T19:22:14.283Z,99089.84
2022-10-28T19:24:43.811Z,99089.00
2022-10-28T19:27:12.697Z,99106.00
2022-10-28T19:29:41.644Z,99107.84
2022-10-28T19:32:10.583Z,99108.00
2022-10-28T19:34:39.560Z,99111.38
2022-10-28T19:37:09.826Z,99113.06
2022-10-28T19:39:38.833Z,99114.91
2022-10-28T19:42:07.705Z,99112.56
2022-10-28T19:44:36.652Z,99117.09
2022-10-28T19:47:05.610Z,99108.84
2022-10-28T19:49:39.322Z,99112.56
2022-10-28T19:52:10.862Z,99114.56
2022-10-28T19:54:39.713Z,99112.72
2022-10-28T19:57:08.660Z,99123.31
2022-10-28T19:59:37.629Z,99119.94
2022-10-28T20:02:06.728Z,99117.94
2022-10-28T20:04:35.767Z,99126.03
2022-10-28T20:07:04.681Z,99128.72
2022-10-28T20:09:37.848Z,99120.78
2022-10-28T20:12:07.549Z,99121.81
2022-10-28T20:14:36.407Z,99117.41
2022-10-28T20:17:06.704Z,99114.56
2022-10-28T20:19:35.836Z,99109.19
2022-10-28T20:22:04.711Z,99110.84
2022-10-28T20:24:33.560Z,99106.34
2022-10-28T20:27:03.720Z,99110.84
2022-10-28T20:29:32.501Z,99109.19
2022-10-28T20:32:01.316Z,99101.25
2022-10-28T20:34:30.193Z,99103.94
2022-10-28T20:36:59.082Z,99100.41
2022-10-28T20:39:27.987Z,99108.50
2022-10-28T20:41:56.833Z,99111.19
2022-10-28T20:44:27.654Z,99109.50
2022-10-28T20:46:56.460Z,99104.13
2022-10-28T20:49:25.453Z,99106.81
2022-10-28T20:51:55.346Z,99100.59
2022-10-28T20:54:24.207Z,99095.22
2022-10-28T20:56:53.152Z,99096.06
2022-10-28T20:59:22.068Z,99097.03
2022-10-28T21:01:52.686Z,99102.41
2022-10-28T21:04:22.160Z,99097.03
2022-10-28T21:06:51.235Z,99101.59
2022-10-28T21:09:20.271Z,99102.41
2022-10-28T21:11:49.058Z,99098.06
2022-10-28T21:14:17.903Z,99092.69
2022-10-28T21:16:46.685Z,99086.44
2022-10-28T21:19:17.459Z,99081.91
2022-10-28T21:21:46.358Z,99075.69
2022-10-28T21:24:15.430Z,99073.81
2022-10-28T21:26:47.173Z,99081.91
2022-10-28T21:29:19.790Z,99089.97
2022-10-28T21:31:49.089Z,99096.38
2022-10-28T21:34:19.441Z,99099.91
2022-10-28T21:36:48.271Z,99091.84
2022-10-28T21:39:17.154Z,99080.38
2022-10-28T21:41:46.012Z,99086.28
2022-10-28T21:44:15.134Z,99074.84
2022-10-28T21:46:44.019Z,99069.47
2022-10-28T21:49:12.943Z,99073.00
2022-10-28T21:51:43.201Z,99073.00
2022-10-28T21:54:12.018Z,99075.00
2022-10-28T21:56:40.856Z,99069.94
2022-10-28T21:59:09.687Z,99069.13
2022-10-28T22:01:38.693Z,99075.00
2022-10-28T22:04:07.936Z,99075.00
2022-10-28T22:06:37.079Z,99071.63
2022-10-28T22:09:07.527Z,99073.31
2022-10-28T22:11:36.368Z,99075.84
2022-10-28T22:14:05.827Z,99070.63
2022-10-28T22:16:35.473Z,99074.16
2022-10-28T22:19:06.190Z,99063.41
2022-10-28T22:21:36.615Z,99058.00
2022-10-28T22:24:07.463Z,99060.84
2022-10-28T22:26:36.352Z,99060.72
2022-10-28T22:29:05.220Z,99046.41
2022-10-28T22:31:34.280Z,99040.19
2022-10-28T22:34:05.355Z,99043.72
2022-10-28T22:36:34.412Z,99052.78
2022-10-28T22:39:03.211Z,99061.72
2022-10-28T22:41:33.837Z,99059.03
2022-10-28T22:44:03.089Z,99051.94
2022-10-28T22:46:33.615Z,99058.00
2022-10-28T22:49:02.453Z,99068.09
2022-10-28T22:51:31.444Z,99060.03
2022-10-28T22:54:00.336Z,99058.16
2022-10-28T22:56:29.428Z,99049.25
2022-10-28T22:59:01.910Z,99056.34
2022-10-28T23:01:31.218Z,99047.56
2022-10-28T23:04:00.969Z,99044.06
2022-10-28T23:06:30.500Z,99041.34
2022-10-28T23:08:59.407Z,99042.19
2022-10-28T23:11:28.494Z,99034.13
2022-10-28T23:13:58.653Z,99034.13
2022-10-28T23:16:27.679Z,99035.09
2022-10-28T23:18:56.765Z,99037.81
2022-10-28T23:21:26.197Z,99024.34
2022-10-28T23:23:55.402Z,99021.84
2022-10-28T23:26:24.471Z,99030.06
2022-10-28T23:28:53.927Z,99027.22
2022-10-28T23:31:24.182Z,99021.84
2022-10-28T23:33:53.622Z,99024.53
2022-10-28T23:36:22.587Z,99014.75
2022-10-28T23:38:52.575Z,99020.13
2022-10-28T23:41:21.519Z,99015.63
2022-10-28T23:43:50.647Z,99008.38
2022-10-28T23:46:20.599Z,99012.06
2022-10-28T23:48:51.067Z,99005.84
2022-10-28T23:51:20.447Z,99005.84
2022-10-28T23:53:49.443Z,99019.28
2022-10-28T23:56:18.224Z,99014.75
2022-10-28T23:58:47.042Z,99006.84
